Time;durP1;ratioP1;P1;durP2;ratioP2;P2;SDS_P1;SDS_P2;PMS_P1;PMS_P2;Temp;Humidity;BMP_temperature;BMP_pressure;BME280_temperature;BME280_humidity;BME280_pressure;Samples;Min_cycle;Max_cycle;Signal;HPM_P1;HPM_P2
2023/10/19 00:02:08;;;;;;;17.20;12.73;;;7.30;99.90;;;;;;5012679;28;20413;-76
2023/10/19 00:04:37;;;;;;;14.67;11.37;;;7.30;99.90;;;;;;5012518;28;20181;-76
2023/10/19 00:07:07;;;;;;;16.03;12.53;;;7.30;99.90;;;;;;5012510;28;20251;-78
2023/10/19 00:09:37;;;;;;;14.53;12.47;;;7.40;99.90;;;;;;5012782;28;20177;-79
2023/10/19 00:12:08;;;;;;;16.87;12.10;;;7.30;99.90;;;;;;5012189;28;20282;-76
2023/10/19 00:14:35;;;;;;;15.63;12.63;;;7.30;99.90;;;;;;5030105;28;20555;-78
2023/10/19 00:17:05;;;;;;;14.83;12.23;;;7.30;99.90;;;;;;5074650;28;20167;-77
2023/10/19 00:19:38;;;;;;;16.60;11.83;;;7.30;99.90;;;;;;5076162;28;20182;-77
2023/10/19 00:22:08;;;;;;;16.27;12.40;;;7.20;99.90;;;;;;5075574;28;20164;-77
2023/10/19 00:24:35;;;;;;;15.37;11.83;;;7.20;99.90;;;;;;5074871;28;20174;-76
2023/10/19 00:27:16;;;;;;;16.23;12.13;;;7.20;99.90;;;;;;5074878;28;20662;-78
2023/10/19 00:29:48;;;;;;;16.80;12.63;;;7.20;99.90;;;;;;5073965;28;20235;-79
2023/10/19 00:32:14;;;;;;;16.00;11.83;;;7.20;99.90;;;;;;5073885;28;20578;-77
2023/10/19 00:34:41;;;;;;;16.90;12.47;;;7.20;99.90;;;;;;5074649;28;20175;-76
2023/10/19 00:37:10;;;;;;;13.53;10.93;;;7.20;99.90;;;;;;5074781;28;20196;-77
2023/10/19 00:39:53;;;;;;;17.70;12.57;;;7.30;99.90;;;;;;5075508;28;20184;-77
2023/10/19 00:42:23;;;;;;;16.53;11.70;;;7.40;99.90;;;;;;5075034;28;20610;-77
2023/10/19 00:44:51;;;;;;;15.87;12.67;;;7.50;99.90;;;;;;5075964;28;20194;-77
2023/10/19 00:47:19;;;;;;;15.20;12.77;;;7.50;99.90;;;;;;5073356;28;20222;-77
2023/10/19 00:49:46;;;;;;;14.50;11.87;;;7.50;99.90;;;;;;5077488;28;20162;-80
2023/10/19 00:52:23;;;;;;;15.33;11.50;;;7.40;99.90;;;;;;5074339;28;20648;-76
2023/10/19 00:57:22;;;;;;;15.30;12.60;;;7.40;99.90;;;;;;5074681;28;20177;-77
2023/10/19 00:59:53;;;;;;;16.47;12.70;;;7.40;99.90;;;;;;5077803;28;20248;-78
2023/10/19 01:02:21;;;;;;;14.97;12.30;;;7.40;99.90;;;;;;5060020;28;20219;-78
2023/10/19 01:05:05;;;;;;;16.97;12.33;;;7.30;99.90;;;;;;5078428;28;20261;-77
2023/10/19 01:07:33;;;;;;;14.47;12.00;;;7.30;99.90;;;;;;5078262;28;20252;-77
2023/10/19 01:10:31;;;;;;;16.07;12.03;;;7.30;99.90;;;;;;5059197;28;20272;-78
2023/10/19 01:14:03;;;;;;;15.77;12.07;;;7.30;99.90;;;;;;5011523;28;20257;-78
2023/10/19 01:21:04;;;;;;;15.67;12.23;;;7.10;99.90;;;;;;4957533;29;20198;-78
2023/10/19 01:24:09;;;;;;;14.57;12.33;;;7.10;99.90;;;;;;4899347;29;20255;-78
2023/10/19 01:26:56;;;;;;;17.50;12.37;;;7.10;99.90;;;;;;4900683;29;20232;-77
2023/10/19 01:29:26;;;;;;;15.77;11.83;;;7.20;99.90;;;;;;4900146;29;20307;-79
2023/10/19 01:31:56;;;;;;;18.30;11.97;;;7.20;99.90;;;;;;4899626;29;20191;-78
2023/10/19 01:34:22;;;;;;;16.03;12.23;;;7.20;99.90;;;;;;4900176;29;20189;-77
2023/10/19 01:36:50;;;;;;;14.93;11.67;;;7.20;99.90;;;;;;4899898;29;20181;-76
2023/10/19 01:39:18;;;;;;;15.87;12.13;;;7.20;99.90;;;;;;4900926;29;20191;-77
2023/10/19 01:41:45;;;;;;;15.97;12.60;;;7.20;99.90;;;;;;4899550;29;20191;-80
2023/10/19 01:44:15;;;;;;;18.00;12.57;;;7.10;99.90;;;;;;4899875;29;20243;-78
2023/10/19 01:46:43;;;;;;;14.27;11.80;;;7.10;99.90;;;;;;4899792;29;20239;-79
2023/10/19 01:49:09;;;;;;;17.17;13.13;;;7.10;99.90;;;;;;4899856;29;20203;-77
2023/10/19 01:51:38;;;;;;;15.83;12.23;;;7.10;99.90;;;;;;4900080;29;20186;-80
2023/10/19 01:54:06;;;;;;;14.93;12.07;;;7.10;99.90;;;;;;4925782;29;20280;-78
2023/10/19 01:56:35;;;;;;;16.03;12.30;;;7.00;99.90;;;;;;4962525;28;20192;-77
2023/10/19 01:59:03;;;;;;;16.67;12.17;;;7.00;99.90;;;;;;4995272;28;20204;-77
2023/10/19 02:01:30;;;;;;;18.00;11.90;;;6.80;99.90;;;;;;5087900;28;20223;-76
2023/10/19 02:03:59;;;;;;;16.40;11.50;;;6.70;99.90;;;;;;5097234;28;20527;-77
2023/10/19 02:06:27;;;;;;;15.77;12.53;;;6.70;99.90;;;;;;5097140;28;20260;-79
2023/10/19 02:09:00;;;;;;;14.23;11.97;;;6.70;99.90;;;;;;5098933;28;20247;-76
2023/10/19 02:11:27;;;;;;;15.20;11.97;;;6.70;99.90;;;;;;5084385;28;20164;-78
2023/10/19 02:14:00;;;;;;;15.33;12.23;;;6.70;99.90;;;;;;5100041;28;20170;-76
2023/10/19 02:16:29;;;;;;;17.83;12.80;;;6.80;99.90;;;;;;5096794;28;20194;-76
2023/10/19 02:18:55;;;;;;;16.77;11.70;;;6.80;99.90;;;;;;5097387;28;20168;-78
2023/10/19 02:21:29;;;;;;;14.43;11.93;;;6.80;99.90;;;;;;5097114;28;20199;-78
2023/10/19 02:23:57;;;;;;;17.23;12.27;;;6.80;99.90;;;;;;5099946;28;20642;-78
2023/10/19 02:26:26;;;;;;;16.93;11.60;;;6.80;99.90;;;;;;5080091;28;20250;-77
2023/10/19 02:28:52;;;;;;;16.43;12.40;;;6.70;99.90;;;;;;5090362;28;20220;-77
2023/10/19 02:31:23;;;;;;;15.33;11.80;;;6.70;99.90;;;;;;5060699;28;20183;-78
2023/10/19 02:44:41;;;;;;;16.37;12.80;;;6.80;99.90;;;;;;4936662;29;20196;-78
2023/10/19 02:47:15;;;;;;;15.97;11.30;;;6.70;99.90;;;;;;4917838;29;20249;-79
2023/10/19 02:49:43;;;;;;;15.07;12.27;;;6.70;99.90;;;;;;4919308;29;20218;-79
2023/10/19 02:52:13;;;;;;;18.13;12.03;;;6.70;99.90;;;;;;4903258;29;20188;-77
2023/10/19 02:54:39;;;;;;;16.80;12.70;;;6.70;99.90;;;;;;4917562;29;20211;-78
2023/10/19 02:57:07;;;;;;;15.80;12.17;;;6.70;99.90;;;;;;4901813;29;20276;-78
2023/10/19 02:59:52;;;;;;;15.80;12.30;;;6.70;99.90;;;;;;4917414;29;20340;-79
2023/10/19 03:03:06;;;;;;;16.50;11.63;;;6.60;99.90;;;;;;4901457;29;20402;-78
2023/10/19 03:16:50;;;;;;;17.40;12.57;;;6.40;99.90;;;;;;4833407;29;20277;-78
2023/10/19 03:20:06;;;;;;;14.70;11.33;;;6.40;99.90;;;;;;4866436;29;20174;-78
2023/10/19 03:23:41;;;;;;;14.87;11.83;;;6.50;99.90;;;;;;4897717;29;20189;-79
2023/10/19 03:26:31;;;;;;;15.50;11.90;;;6.50;99.90;;;;;;4838455;29;20757;-79
2023/10/19 03:29:03;;;;;;;14.23;11.53;;;6.50;99.90;;;;;;4829586;29;20205;-79
2023/10/19 03:31:29;;;;;;;15.40;11.67;;;6.50;99.90;;;;;;4842369;29;20274;-80
2023/10/19 03:33:55;;;;;;;15.77;11.97;;;6.50;99.90;;;;;;4842954;29;20193;-78
2023/10/19 03:36:22;;;;;;;14.43;11.50;;;6.40;99.90;;;;;;4842053;29;20186;-79
2023/10/19 03:38:51;;;;;;;14.90;11.40;;;6.40;99.90;;;;;;4842589;29;20195;-79
2023/10/19 03:41:21;;;;;;;16.70;12.33;;;6.40;99.90;;;;;;4842703;29;20280;-77
2023/10/19 03:43:48;;;;;;;17.73;12.27;;;6.40;99.90;;;;;;4848004;29;20201;-79
2023/10/19 03:46:22;;;;;;;14.60;12.13;;;6.40;99.90;;;;;;4896706;29;20179;-80
2023/10/19 03:48:48;;;;;;;17.57;12.07;;;6.30;99.90;;;;;;4906691;29;20247;-78
2023/10/19 03:51:14;;;;;;;15.17;11.53;;;6.20;99.90;;;;;;4913009;29;20182;-77
2023/10/19 03:53:46;;;;;;;19.27;12.57;;;6.20;99.90;;;;;;4954677;29;20267;-77
2023/10/19 03:56:12;;;;;;;14.63;12.03;;;6.30;99.90;;;;;;4955183;29;20186;-78
2023/10/19 03:58:40;;;;;;;15.93;12.83;;;6.20;99.90;;;;;;4975056;28;20204;-75
2023/10/19 04:01:07;;;;;;;16.77;11.17;;;6.30;99.90;;;;;;4974368;28;20291;-78
2023/10/19 04:03:34;;;;;;;15.77;11.43;;;6.30;99.90;;;;;;5086446;28;20184;-80
2023/10/19 04:06:04;;;;;;;16.27;12.37;;;6.30;99.90;;;;;;5094787;28;20167;-77
2023/10/19 04:08:35;;;;;;;15.27;11.33;;;6.30;99.90;;;;;;5076837;28;20749;-77
2023/10/19 04:13:59;;;;;;;14.87;11.20;;;6.40;99.90;;;;;;5063372;28;20190;-78
2023/10/19 04:16:28;;;;;;;13.53;11.40;;;6.30;99.90;;;;;;5077322;28;20211;-79
2023/10/19 04:18:55;;;;;;;16.97;12.37;;;6.40;99.90;;;;;;5093479;28;20503;-78
2023/10/19 04:21:23;;;;;;;13.50;11.43;;;6.30;99.90;;;;;;5094518;28;20169;-77
2023/10/19 04:23:50;;;;;;;15.13;12.00;;;6.30;99.90;;;;;;5075530;28;20225;-78
2023/10/19 04:26:18;;;;;;;16.97;11.87;;;6.10;99.90;;;;;;5062692;28;20230;-80
2023/10/19 04:28:49;;;;;;;15.77;11.90;;;6.10;99.90;;;;;;5075746;28;20202;-79
2023/10/19 04:31:17;;;;;;;14.40;11.47;;;6.10;99.90;;;;;;5074669;28;20558;-78
2023/10/19 04:33:49;;;;;;;14.93;11.57;;;6.00;99.90;;;;;;5074643;28;20204;-79
2023/10/19 04:36:16;;;;;;;17.70;11.67;;;6.10;99.90;;;;;;5056141;28;20655;-79
2023/10/19 04:38:44;;;;;;;16.60;11.87;;;6.00;99.90;;;;;;5074889;28;20170;-78
2023/10/19 04:42:06;;;;;;;18.03;12.47;;;6.10;99.90;;;;;;5054250;28;20184;-78
2023/10/19 04:45:14;;;;;;;15.27;11.80;;;6.00;99.90;;;;;;5059196;28;20247;-79
2023/10/19 04:48:49;;;;;;;15.77;11.90;;;6.00;99.90;;;;;;5037560;28;20214;-77
2023/10/19 04:51:56;;;;;;;15.13;11.67;;;6.10;99.90;;;;;;5015295;28;20548;-79
2023/10/19 04:54:31;;;;;;;15.20;11.27;;;6.10;99.90;;;;;;5000670;28;20186;-79
2023/10/19 04:56:56;;;;;;;19.07;12.57;;;6.10;99.90;;;;;;5031241;28;20182;-78
2023/10/19 04:59:23;;;;;;;14.97;12.07;;;6.00;99.90;;;;;;5031580;28;20215;-77
2023/10/19 05:01:50;;;;;;;14.93;11.23;;;6.10;99.90;;;;;;5031382;28;20286;-78
2023/10/19 05:04:16;;;;;;;15.77;12.53;;;6.10;99.90;;;;;;5031783;28;20268;-78
2023/10/19 05:06:42;;;;;;;13.67;11.60;;;6.10;99.90;;;;;;5031806;28;20285;-77
2023/10/19 05:09:09;;;;;;;15.70;11.83;;;6.10;99.90;;;;;;5031734;28;20301;-79
2023/10/19 05:11:39;;;;;;;15.47;12.00;;;6.20;99.90;;;;;;5031338;28;20284;-79
2023/10/19 05:14:10;;;;;;;16.60;12.03;;;6.10;99.90;;;;;;5031490;28;20275;-77
2023/10/19 05:20:43;;;;;;;20.57;12.33;;;6.10;99.90;;;;;;5031648;28;20180;-77
2023/10/19 05:31:53;;;;;;;17.90;12.17;;;6.10;99.90;;;;;;4992210;28;20252;-78
2023/10/19 05:35:22;;;;;;;16.57;12.37;;;6.20;99.90;;;;;;4915481;29;20227;-79
2023/10/19 05:38:51;;;;;;;18.93;11.70;;;6.30;99.90;;;;;;4934068;29;20199;-77
2023/10/19 05:41:46;;;;;;;16.97;12.40;;;6.20;99.90;;;;;;4898136;29;20181;-80
2023/10/19 05:44:12;;;;;;;16.73;12.10;;;6.30;99.90;;;;;;4842964;29;20184;-80
2023/10/19 05:46:40;;;;;;;17.90;12.07;;;6.30;99.90;;;;;;4846104;29;20205;-79
2023/10/19 05:49:06;;;;;;;17.97;12.30;;;6.30;99.90;;;;;;4846724;29;20258;-78
2023/10/19 05:51:32;;;;;;;17.93;12.27;;;6.30;99.90;;;;;;4862183;29;20649;-77
2023/10/19 05:54:01;;;;;;;17.27;11.87;;;6.40;99.90;;;;;;4865599;29;20190;-78
2023/10/19 05:56:36;;;;;;;21.33;13.73;;;6.50;99.90;;;;;;4899840;29;20655;-78
2023/10/19 05:59:02;;;;;;;15.87;11.10;;;6.60;99.90;;;;;;4899547;29;20192;-79
2023/10/19 06:01:28;;;;;;;15.13;11.17;;;6.70;99.90;;;;;;4883994;29;20192;-76
2023/10/19 06:03:54;;;;;;;15.50;12.03;;;6.80;99.90;;;;;;4894483;29;20207;-77
2023/10/19 06:06:20;;;;;;;17.47;12.33;;;6.90;99.90;;;;;;4891926;29;20196;-79
2023/10/19 06:08:46;;;;;;;16.53;12.13;;;6.90;99.90;;;;;;4901753;29;20218;-79
2023/10/19 06:11:11;;;;;;;17.10;12.33;;;7.00;99.90;;;;;;4915405;29;20264;-78
2023/10/19 06:13:37;;;;;;;15.43;11.77;;;6.90;99.90;;;;;;4956809;29;20296;-78
2023/10/19 06:16:03;;;;;;;20.30;12.20;;;6.80;99.90;;;;;;4956737;29;20180;-78
2023/10/19 06:18:29;;;;;;;16.43;11.97;;;6.80;99.90;;;;;;4956388;29;20566;-78
2023/10/19 06:20:55;;;;;;;17.40;12.27;;;6.80;99.90;;;;;;4959608;28;20185;-79
2023/10/19 06:23:21;;;;;;;18.33;12.30;;;6.80;99.90;;;;;;4995158;28;20215;-81
2023/10/19 06:25:47;;;;;;;18.30;12.10;;;6.90;99.90;;;;;;4994406;28;20214;-82
2023/10/19 06:28:13;;;;;;;16.67;12.33;;;6.90;99.90;;;;;;4978524;28;20219;-78
2023/10/19 06:30:42;;;;;;;16.10;12.20;;;6.90;99.90;;;;;;4995060;28;20181;-79
2023/10/19 06:33:08;;;;;;;18.40;12.50;;;6.90;99.90;;;;;;4992871;28;20178;-76
2023/10/19 06:35:36;;;;;;;16.83;12.33;;;6.90;99.90;;;;;;4994227;28;20715;-80
2023/10/19 06:38:03;;;;;;;16.23;12.13;;;6.90;99.90;;;;;;4993927;28;20232;-79
2023/10/19 06:40:30;;;;;;;18.30;12.97;;;6.90;99.90;;;;;;4994429;28;20219;-78
2023/10/19 06:42:57;;;;;;;20.83;12.73;;;7.00;99.90;;;;;;4978681;28;20184;-79
2023/10/19 06:45:25;;;;;;;18.37;12.97;;;7.10;99.90;;;;;;4994927;28;20176;-78
2023/10/19 06:47:52;;;;;;;15.97;12.20;;;7.20;99.90;;;;;;5062377;28;20219;-77
2023/10/19 06:50:20;;;;;;;17.83;12.60;;;7.30;99.90;;;;;;5097215;28;20632;-77
2023/10/19 06:52:47;;;;;;;21.20;12.30;;;7.30;99.90;;;;;;5096646;28;20260;-77
2023/10/19 06:55:16;;;;;;;17.03;12.03;;;7.40;99.90;;;;;;5096011;28;20260;-78
2023/10/19 06:57:50;;;;;;;18.10;12.93;;;7.40;99.90;;;;;;5077220;28;20256;-78
2023/10/19 07:00:19;;;;;;;17.27;12.03;;;7.50;99.90;;;;;;5095799;28;20180;-78
2023/10/19 07:02:56;;;;;;;17.70;11.17;;;7.60;99.90;;;;;;5096170;28;20196;-77
2023/10/19 07:05:24;;;;;;;13.73;11.10;;;7.70;99.90;;;;;;5078410;28;20189;-77
2023/10/19 07:07:51;;;;;;;14.60;11.57;;;7.70;99.90;;;;;;5079244;28;20230;-76
2023/10/19 07:10:18;;;;;;;19.37;12.67;;;7.80;99.90;;;;;;5095551;28;20191;-78
2023/10/19 07:12:46;;;;;;;18.90;12.33;;;7.90;99.90;;;;;;5095690;28;20247;-80
2023/10/19 07:15:14;;;;;;;18.43;11.77;;;8.00;99.90;;;;;;5094910;28;20198;-77
2023/10/19 07:17:43;;;;;;;15.87;11.80;;;8.00;99.90;;;;;;5095003;28;20710;-77
2023/10/19 07:20:25;;;;;;;19.13;12.23;;;8.10;99.90;;;;;;5095264;28;20173;-77
2023/10/19 07:22:51;;;;;;;13.73;11.10;;;8.30;99.90;;;;;;5095285;28;20167;-78
2023/10/19 07:25:21;;;;;;;18.47;12.17;;;8.40;99.90;;;;;;5096265;28;20608;-78
2023/10/19 07:27:48;;;;;;;15.07;10.30;;;8.50;99.90;;;;;;5099276;28;20205;-79
2023/10/19 07:30:15;;;;;;;14.53;10.37;;;8.60;99.90;;;;;;5095555;28;20171;-78
2023/10/19 07:32:41;;;;;;;13.83;10.17;;;8.60;99.90;;;;;;5096169;28;20196;-77
2023/10/19 07:35:07;;;;;;;14.93;11.13;;;8.80;99.90;;;;;;5095351;28;20218;-77
2023/10/19 07:37:33;;;;;;;12.17;9.40;;;8.80;99.90;;;;;;5095924;28;20177;-76
2023/10/19 07:39:59;;;;;;;14.27;10.37;;;8.90;99.90;;;;;;5095189;28;20181;-77
2023/10/19 07:42:25;;;;;;;22.57;11.87;;;8.90;99.90;;;;;;5096310;28;20179;-78
2023/10/19 07:44:51;;;;;;;12.67;10.00;;;9.10;99.90;;;;;;5095369;28;20215;-76
2023/10/19 07:47:17;;;;;;;13.33;8.73;;;9.10;99.90;;;;;;5097536;28;20197;-78
2023/10/19 07:49:43;;;;;;;11.93;9.03;;;9.20;99.90;;;;;;5107003;28;20166;-76
2023/10/19 07:52:10;;;;;;;11.63;9.27;;;9.30;99.90;;;;;;5103732;28;20167;-77
2023/10/19 07:54:37;;;;;;;9.70;8.60;;;9.40;99.90;;;;;;5095918;28;20163;-79
2023/10/19 07:57:05;;;;;;;10.93;8.67;;;9.60;99.90;;;;;;5094242;28;20163;-77
2023/10/19 07:59:34;;;;;;;9.90;8.90;;;9.70;99.90;;;;;;5094533;28;20168;-78
2023/10/19 08:02:04;;;;;;;9.97;8.50;;;9.90;99.90;;;;;;5095591;28;20174;-77
2023/10/19 08:04:30;;;;;;;10.07;8.13;;;10.10;99.90;;;;;;5061041;28;20189;-76
2023/10/19 08:06:58;;;;;;;10.07;8.77;;;10.20;99.90;;;;;;5095065;28;20173;-76
2023/10/19 08:09:26;;;;;;;12.07;8.70;;;10.30;99.90;;;;;;5075727;28;20178;-78
2023/10/19 08:11:59;;;;;;;12.40;8.67;;;10.40;99.90;;;;;;5095127;28;20651;-77
2023/10/19 08:14:27;;;;;;;21.47;11.27;;;10.40;99.90;;;;;;5094585;28;20660;-78
2023/10/19 08:16:53;;;;;;;13.10;9.30;;;10.40;99.90;;;;;;5094045;28;20652;-76
2023/10/19 08:19:19;;;;;;;9.77;8.77;;;10.60;99.90;;;;;;5094455;28;20220;-77
2023/10/19 08:21:46;;;;;;;10.73;8.37;;;10.70;99.90;;;;;;5093854;28;20182;-77
2023/10/19 08:24:17;;;;;;;10.10;8.37;;;10.70;99.90;;;;;;5076807;28;20216;-76
2023/10/19 08:26:45;;;;;;;11.90;8.40;;;10.90;99.90;;;;;;5093950;28;20234;-77
2023/10/19 08:29:14;;;;;;;12.60;8.60;;;10.90;99.90;;;;;;5076078;28;20189;-79
2023/10/19 08:31:46;;;;;;;11.87;8.13;;;11.00;99.90;;;;;;5077378;28;20211;-78
2023/10/19 08:34:13;;;;;;;11.67;8.87;;;11.10;99.90;;;;;;5095350;28;20254;-79
2023/10/19 08:36:39;;;;;;;9.90;8.33;;;11.30;99.90;;;;;;5095365;28;20175;-76
2023/10/19 08:39:07;;;;;;;10.20;8.33;;;11.40;99.90;;;;;;5095779;28;20177;-77
2023/10/19 08:41:37;;;;;;;8.87;8.07;;;11.50;99.90;;;;;;5095092;28;20186;-76
2023/10/19 08:44:04;;;;;;;12.73;8.10;;;11.60;99.90;;;;;;5094921;28;20637;-77
2023/10/19 08:46:30;;;;;;;10.90;8.27;;;11.70;99.90;;;;;;5095996;28;20244;-79
2023/10/19 08:48:59;;;;;;;21.43;14.30;;;11.80;99.90;;;;;;5076454;28;20222;-77
2023/10/19 08:51:25;;;;;;;10.33;9.23;;;12.00;99.90;;;;;;5076682;28;20230;-77
2023/10/19 08:53:54;;;;;;;9.90;8.90;;;12.10;99.90;;;;;;5076297;28;20267;-75
2023/10/19 08:56:23;;;;;;;10.43;8.40;;;12.20;99.90;;;;;;5078670;28;20263;-77
2023/10/19 08:58:51;;;;;;;8.90;8.00;;;12.30;99.90;;;;;;5095350;28;20221;-77
2023/10/19 09:01:19;;;;;;;11.23;8.37;;;12.40;99.90;;;;;;5076381;28;20170;-77
2023/10/19 09:03:46;;;;;;;12.17;8.83;;;12.40;99.90;;;;;;5076068;28;20179;-75
2023/10/19 09:06:12;;;;;;;12.13;8.37;;;12.50;99.90;;;;;;5076738;28;20177;-78
2023/10/19 09:08:40;;;;;;;10.50;8.93;;;12.50;99.90;;;;;;5076493;28;20277;-77
2023/10/19 09:11:13;;;;;;;10.93;8.80;;;12.60;99.90;;;;;;5095081;28;20258;-75
2023/10/19 09:13:51;;;;;;;12.17;9.63;;;12.70;99.90;;;;;;5076372;28;20181;-76
2023/10/19 09:16:19;;;;;;;15.37;9.17;;;12.70;99.90;;;;;;5093608;28;20174;-79
2023/10/19 09:18:46;;;;;;;14.40;9.20;;;12.80;99.90;;;;;;5094165;28;20233;-78
2023/10/19 09:21:24;;;;;;;13.23;10.47;;;12.80;99.90;;;;;;5097777;28;20167;-76
2023/10/19 09:23:51;;;;;;;15.30;10.03;;;12.90;99.90;;;;;;5079709;28;20209;-77
2023/10/19 09:26:18;;;;;;;12.07;9.50;;;12.90;99.90;;;;;;5097518;28;20221;-76
2023/10/19 09:28:50;;;;;;;10.50;8.97;;;13.00;99.90;;;;;;5079445;28;20232;-75
2023/10/19 09:31:16;;;;;;;10.47;8.43;;;13.00;99.90;;;;;;5098050;28;20155;-74
2023/10/19 09:33:45;;;;;;;12.27;9.07;;;13.10;99.90;;;;;;5097844;28;20177;-78
2023/10/19 09:36:15;;;;;;;14.30;8.83;;;13.20;99.90;;;;;;5105410;28;20169;-76
2023/10/19 09:38:48;;;;;;;17.10;8.60;;;13.20;99.90;;;;;;5114578;28;20155;-76
2023/10/19 09:41:17;;;;;;;18.33;8.93;;;13.30;99.90;;;;;;5108422;28;20174;-75
2023/10/19 09:43:45;;;;;;;11.90;7.93;;;13.40;99.90;;;;;;5100656;28;20182;-77
2023/10/19 09:46:18;;;;;;;8.07;7.27;;;13.60;99.90;;;;;;5098917;28;20221;-77
2023/10/19 09:48:48;;;;;;;7.53;6.83;;;13.70;99.90;;;;;;5098544;28;20205;-78
2023/10/19 09:51:16;;;;;;;11.53;7.13;;;13.80;99.90;;;;;;5098279;28;20209;-76
2023/10/19 09:54:03;;;;;;;8.33;7.37;;;13.90;99.90;;;;;;5099049;28;20533;-76
2023/10/19 09:57:01;;;;;;;8.33;7.40;;;14.00;99.90;;;;;;5104278;28;20236;-77
2023/10/19 09:59:34;;;;;;;8.13;6.70;;;14.10;99.90;;;;;;5097266;28;20194;-78
2023/10/19 10:02:06;;;;;;;8.73;6.13;;;14.10;99.90;;;;;;5097503;28;20260;-77
2023/10/19 10:04:32;;;;;;;9.97;6.60;;;14.20;99.90;;;;;;5079802;28;20209;-77
2023/10/19 10:07:00;;;;;;;7.93;6.40;;;14.20;99.90;;;;;;5079797;28;20517;-78
2023/10/19 10:09:29;;;;;;;8.97;6.60;;;14.20;99.90;;;;;;5097243;28;20190;-77
2023/10/19 10:11:56;;;;;;;6.97;6.27;;;14.20;99.90;;;;;;5097610;28;20170;-78
2023/10/19 10:14:29;;;;;;;7.93;6.67;;;14.20;99.90;;;;;;5078812;28;20272;-78
2023/10/19 10:17:05;;;;;;;9.03;7.17;;;14.20;99.90;;;;;;5097403;28;20185;-77
2023/10/19 10:19:31;;;;;;;6.70;6.03;;;14.10;99.90;;;;;;5079317;28;20228;-77
2023/10/19 10:22:20;;;;;;;8.60;6.90;;;14.20;99.90;;;;;;5096435;28;20182;-76
2023/10/19 10:24:47;;;;;;;11.13;6.90;;;14.20;99.90;;;;;;5096408;28;20307;-77
2023/10/19 10:27:19;;;;;;;9.93;6.97;;;14.20;99.90;;;;;;5081174;28;20225;-78
2023/10/19 10:30:02;;;;;;;8.47;6.87;;;14.20;99.90;;;;;;5081425;28;20282;-76
2023/10/19 10:32:48;;;;;;;9.97;6.90;;;14.30;99.90;;;;;;5078428;28;20170;-77
2023/10/19 10:35:36;;;;;;;7.73;6.67;;;14.30;99.90;;;;;;5097725;28;20183;-77
2023/10/19 10:38:05;;;;;;;8.77;6.43;;;14.50;99.90;;;;;;5096932;28;20201;-77
2023/10/19 10:40:31;;;;;;;7.57;6.27;;;14.70;99.90;;;;;;5080121;28;20174;-78
2023/10/19 10:43:07;;;;;;;9.33;7.77;;;14.80;99.90;;;;;;5095970;28;20762;-80
2023/10/19 10:45:33;;;;;;;6.53;5.87;;;14.90;99.90;;;;;;5096618;28;20167;-78
2023/10/19 10:48:00;;;;;;;7.63;6.90;;;15.00;99.90;;;;;;5096253;28;20539;-79
2023/10/19 10:50:28;;;;;;;7.13;6.33;;;15.10;99.90;;;;;;5078062;28;20184;-79
2023/10/19 10:52:57;;;;;;;7.77;6.97;;;15.20;99.90;;;;;;5096734;28;20180;-79
2023/10/19 10:55:27;;;;;;;7.20;6.50;;;15.30;99.90;;;;;;5096197;28;20170;-78
2023/10/19 10:57:54;;;;;;;6.77;6.07;;;15.40;99.90;;;;;;5096021;28;20171;-77
2023/10/19 11:00:22;;;;;;;6.73;6.03;;;15.50;99.90;;;;;;5095636;28;20631;-77
2023/10/19 11:03:00;;;;;;;6.40;5.67;;;15.50;99.90;;;;;;5095552;28;20596;-79
2023/10/19 11:05:27;;;;;;;6.00;5.40;;;15.70;99.90;;;;;;5077867;28;20943;-80
2023/10/19 11:08:13;;;;;;;7.57;6.43;;;15.80;99.90;;;;;;5095695;28;20194;-77
2023/10/19 11:10:39;;;;;;;8.43;6.63;;;15.90;99.90;;;;;;5095827;28;20394;-78
2023/10/19 11:13:07;;;;;;;6.63;6.03;;;15.90;99.90;;;;;;5095821;28;20503;-76
2023/10/19 11:15:33;;;;;;;6.40;5.80;;;16.00;99.90;;;;;;5095576;28;20166;-78
2023/10/19 11:17:59;;;;;;;7.27;5.60;;;16.00;99.90;;;;;;5095622;28;20262;-77
2023/10/19 11:20:29;;;;;;;6.53;5.93;;;16.00;99.90;;;;;;5095409;28;20202;-76
2023/10/19 11:22:57;;;;;;;6.30;5.70;;;16.00;99.90;;;;;;5096049;28;20231;-77
2023/10/19 11:25:28;;;;;;;6.13;5.53;;;16.00;99.90;;;;;;5104739;28;20300;-77
2023/10/19 11:27:57;;;;;;;6.23;5.57;;;16.00;99.90;;;;;;5115370;28;20213;-76
2023/10/19 11:30:28;;;;;;;5.70;5.20;;;16.00;99.90;;;;;;5105819;28;20185;-78
2023/10/19 11:33:00;;;;;;;7.10;5.77;;;16.00;99.90;;;;;;5096404;28;20173;-79
2023/10/19 11:35:29;;;;;;;8.53;5.83;;;16.10;99.90;;;;;;5095512;28;20174;-77
2023/10/19 11:37:57;;;;;;;6.67;5.87;;;16.10;99.90;;;;;;5096807;28;20170;-78
2023/10/19 11:40:23;;;;;;;6.53;5.83;;;16.10;99.90;;;;;;5095284;28;20174;-80
2023/10/19 11:42:50;;;;;;;7.93;6.77;;;16.10;99.90;;;;;;5097112;28;20316;-79
2023/10/19 11:45:17;;;;;;;6.47;5.87;;;16.20;99.90;;;;;;5099413;28;20627;-76
2023/10/19 11:47:44;;;;;;;6.83;6.03;;;16.20;99.90;;;;;;5095022;28;20266;-78
2023/10/19 11:50:17;;;;;;;7.33;6.00;;;16.40;99.90;;;;;;5095122;28;20170;-77
2023/10/19 11:52:45;;;;;;;5.90;5.23;;;16.40;99.90;;;;;;5094580;28;20246;-75
2023/10/19 11:55:13;;;;;;;6.67;6.00;;;16.50;99.90;;;;;;5094615;28;20198;-78
2023/10/19 11:57:40;;;;;;;9.20;5.90;;;16.50;99.90;;;;;;5096908;28;20178;-76
2023/10/19 12:00:13;;;;;;;6.10;5.50;;;16.60;99.90;;;;;;5104700;28;20166;-75
2023/10/19 12:02:42;;;;;;;6.17;5.47;;;16.40;99.90;;;;;;5101964;28;20166;-76
2023/10/19 12:05:12;;;;;;;5.80;5.30;;;16.40;99.90;;;;;;5095819;28;20170;-76
2023/10/19 12:07:38;;;;;;;5.87;5.33;;;16.30;99.90;;;;;;5094309;28;20220;-75
2023/10/19 12:10:07;;;;;;;5.93;5.33;;;16.20;99.90;;;;;;5094776;28;20196;-80
2023/10/19 12:12:34;;;;;;;6.63;6.00;;;16.10;99.90;;;;;;5093816;28;20175;-75
2023/10/19 12:15:00;;;;;;;7.23;5.20;;;16.00;99.90;;;;;;5094351;28;20162;-76
2023/10/19 12:17:27;;;;;;;6.53;5.70;;;15.90;99.90;;;;;;5094699;28;20174;-78
2023/10/19 12:19:54;;;;;;;6.97;6.03;;;15.90;99.90;;;;;;5076100;28;20166;-77
2023/10/19 12:22:21;;;;;;;7.40;6.20;;;15.80;99.90;;;;;;5094618;28;20529;-76
2023/10/19 12:24:48;;;;;;;7.27;6.30;;;15.90;99.90;;;;;;5094893;28;20182;-76
2023/10/19 12:27:14;;;;;;;6.80;6.20;;;15.70;99.90;;;;;;5056015;28;20220;-76
2023/10/19 12:29:47;;;;;;;9.70;5.93;;;15.80;99.90;;;;;;5074240;28;20190;-79
2023/10/19 12:32:16;;;;;;;5.93;5.40;;;15.80;99.90;;;;;;5074670;28;20615;-78
2023/10/19 12:34:45;;;;;;;7.63;5.50;;;15.90;99.90;;;;;;5055753;28;20540;-78
2023/10/19 12:37:12;;;;;;;7.13;5.50;;;15.90;99.90;;;;;;5056857;28;20234;-77
2023/10/19 12:39:47;;;;;;;5.47;4.97;;;15.80;99.90;;;;;;5085703;28;20183;-77
2023/10/19 12:42:14;;;;;;;5.77;5.23;;;15.80;99.90;;;;;;5075790;28;20178;-76
2023/10/19 12:44:41;;;;;;;6.07;5.47;;;15.80;99.90;;;;;;5064539;28;20183;-78
2023/10/19 12:47:13;;;;;;;8.27;5.20;;;15.80;99.90;;;;;;5076974;28;20183;-76
2023/10/19 12:49:42;;;;;;;6.70;5.17;;;15.80;99.90;;;;;;5072972;28;20686;-80
2023/10/19 12:52:10;;;;;;;7.13;5.57;;;15.90;99.90;;;;;;5054888;28;20171;-80
2023/10/19 12:54:36;;;;;;;5.40;4.90;;;15.90;99.90;;;;;;5073873;28;20177;-76
2023/10/19 12:57:09;;;;;;;5.83;5.33;;;15.90;99.90;;;;;;5076968;28;20178;-78
2023/10/19 12:59:39;;;;;;;6.67;5.07;;;16.00;99.90;;;;;;5076828;28;20170;-79
2023/10/19 13:02:08;;;;;;;5.47;4.97;;;16.10;99.90;;;;;;5078469;28;20167;-75
2023/10/19 13:04:34;;;;;;;7.40;5.23;;;16.20;99.90;;;;;;5087706;28;20168;-80
2023/10/19 13:07:02;;;;;;;6.63;5.77;;;16.20;99.90;;;;;;5076625;28;20170;-76
2023/10/19 13:09:31;;;;;;;5.80;5.30;;;16.30;99.90;;;;;;5076576;28;20214;-77
2023/10/19 13:12:00;;;;;;;6.80;5.53;;;16.30;99.90;;;;;;5076669;28;20585;-77
2023/10/19 13:14:29;;;;;;;8.83;6.47;;;16.30;99.90;;;;;;5076350;28;20534;-78
2023/10/19 13:16:54;;;;;;;7.20;5.17;;;16.40;99.90;;;;;;5076478;28;20172;-77
2023/10/19 13:19:25;;;;;;;10.87;5.30;;;16.40;99.90;;;;;;5058463;28;20186;-78
2023/10/19 13:21:51;;;;;;;8.63;6.07;;;16.40;99.90;;;;;;5058911;28;20584;-78
2023/10/19 13:24:20;;;;;;;42.50;31.03;;;16.50;99.90;;;;;;5076518;28;20720;-79
2023/10/19 13:26:46;;;;;;;7.87;6.73;;;16.50;99.90;;;;;;5093154;28;20278;-80
2023/10/19 13:29:14;;;;;;;12.10;6.27;;;16.60;99.90;;;;;;5096505;28;20198;-78
2023/10/19 13:31:40;;;;;;;9.23;5.27;;;16.60;99.90;;;;;;5078667;28;20541;-77
2023/10/19 13:34:10;;;;;;;9.33;5.20;;;16.60;99.90;;;;;;5078758;28;20179;-76
2023/10/19 13:36:36;;;;;;;15.17;5.83;;;16.70;99.90;;;;;;5097131;28;20174;-78
2023/10/19 13:39:03;;;;;;;17.50;6.23;;;16.70;99.90;;;;;;5096620;28;20197;-75
2023/10/19 13:41:29;;;;;;;8.80;5.10;;;16.80;99.90;;;;;;5077969;28;20175;-77
2023/10/19 13:43:55;;;;;;;5.97;5.00;;;16.80;99.90;;;;;;5096677;28;20166;-77
2023/10/19 13:46:23;;;;;;;5.83;4.97;;;16.90;99.90;;;;;;5096897;28;20224;-78